createdAt,value
2019-05-17T00:01:16.918Z,957.1
2019-05-17T00:11:20.327Z,956.7
2019-05-17T00:21:23.749Z,957.2
2019-05-17T00:31:27.192Z,957.2
2019-05-17T00:41:30.600Z,956.9
2019-05-17T00:51:34.051Z,957.2
2019-05-17T01:01:37.501Z,956.9
2019-05-17T01:11:40.951Z,957.4
2019-05-17T01:21:44.373Z,957.2
2019-05-17T01:31:47.847Z,957
2019-05-17T01:41:51.289Z,957.1
2019-05-17T01:51:57.196Z,956.9
2019-05-17T02:02:00.641Z,957.2
2019-05-17T02:12:06.543Z,957.4
2019-05-17T02:22:10.110Z,956.8
2019-05-17T02:32:13.557Z,957.5
2019-05-17T02:42:17.037Z,957.2
2019-05-17T02:52:23.437Z,957.5
2019-05-17T03:02:28.548Z,957.2
2019-05-17T03:12:33.412Z,957.2
2019-05-17T03:22:36.859Z,950.3
2019-05-17T03:32:56.069Z,957.7
2019-05-17T03:43:03.326Z,950.4
2019-05-17T03:53:06.817Z,950.6
2019-05-17T04:03:14.077Z,950.5
2019-05-17T04:13:17.526Z,957.7
2019-05-17T04:23:23.799Z,957.5
2019-05-17T04:33:27.293Z,957.4
2019-05-17T04:43:34.071Z,957.3
2019-05-17T04:53:37.510Z,957
2019-05-17T05:03:43.592Z,956.6
2019-05-17T05:13:47.047Z,956.1
2019-05-17T05:23:52.156Z,955.4
2019-05-17T05:33:55.578Z,954.9
2019-05-17T05:44:02.106Z,953.4
2019-05-17T05:54:05.615Z,952.8
2019-05-17T06:04:09.086Z,953.7
2019-05-17T06:14:12.658Z,957.9
2019-05-17T06:24:16.149Z,950.6
2019-05-17T06:34:22.161Z,957.5
2019-05-17T06:44:25.749Z,957.6
2019-05-17T06:54:29.203Z,956.9
2019-05-17T07:04:32.618Z,957.6
2019-05-17T07:14:36.061Z,956.4
2019-05-17T07:24:40.138Z,955.8
2019-05-17T07:34:43.630Z,954.7
2019-05-17T07:44:47.118Z,954.3
2019-05-17T07:54:51.281Z,953.7
2019-05-17T08:04:54.769Z,953.3
2019-05-17T08:15:00.359Z,952.5
2019-05-17T08:25:03.822Z,952.5
2019-05-17T08:35:07.265Z,952.2
2019-05-17T08:45:10.735Z,952
2019-05-17T08:55:14.198Z,951.5
2019-05-17T09:05:20.812Z,951.5
2019-05-17T09:15:24.520Z,951.7
2019-05-17T09:25:30.628Z,951.2
2019-05-17T09:35:34.062Z,951.4
2019-05-17T09:45:41.036Z,950.8
2019-05-17T09:55:44.458Z,950.3
2019-05-17T10:05:49.963Z,949.5
2019-05-17T10:15:53.434Z,949.6
2019-05-17T10:25:56.853Z,949
2019-05-17T10:36:00.963Z,948.7
2019-05-17T10:46:04.410Z,949.6
2019-05-17T10:56:10.350Z,955.6
2019-05-17T11:06:13.811Z,954.6
2019-05-17T11:16:17.302Z,954.3
2019-05-17T11:26:20.742Z,954.4
2019-05-17T11:36:24.193Z,954.8
2019-05-17T11:46:36.990Z,953.7
2019-05-17T11:56:40.488Z,954.7
2019-05-17T12:06:43.922Z,953.7
2019-05-17T12:16:47.377Z,953
2019-05-17T12:26:50.823Z,952.8
2019-05-17T12:36:54.278Z,953.1
2019-05-17T12:46:57.725Z,953.2
2019-05-17T12:57:05.380Z,953
2019-05-17T13:07:08.824Z,952.4
2019-05-17T13:17:12.268Z,953.3
2019-05-17T13:27:15.694Z,953.1
2019-05-17T13:37:19.165Z,952.7
2019-05-17T13:47:22.702Z,953.4
2019-05-17T13:57:26.173Z,953.1
2019-05-17T14:07:29.642Z,952.6
2019-05-17T14:17:33.123Z,952.8
2019-05-17T14:27:36.635Z,953
2019-05-17T14:37:40.088Z,953.2
2019-05-17T14:47:43.584Z,952.4
2019-05-17T14:57:47.164Z,952.4
2019-05-17T15:07:50.639Z,952
2019-05-17T15:17:54.119Z,952.1
2019-05-17T15:27:57.560Z,952.5
2019-05-17T15:38:01.013Z,952.1
2019-05-17T15:48:04.447Z,952
2019-05-17T15:58:07.890Z,952
2019-05-17T16:08:11.335Z,952
2019-05-17T16:18:14.837Z,952.3
2019-05-17T16:28:18.322Z,952.1
2019-05-17T16:38:21.777Z,952.8
2019-05-17T16:48:25.224Z,953.2
2019-05-17T16:58:28.623Z,953.4
2019-05-17T17:08:32.075Z,953.5
2019-05-17T17:18:35.548Z,953.8
2019-05-17T17:28:39.771Z,954.1
2019-05-17T17:38:43.263Z,954.2
2019-05-17T17:48:46.697Z,947.4
2019-05-17T17:58:50.159Z,947.4
2019-05-17T18:08:53.593Z,947.6
2019-05-17T18:18:56.998Z,948.4
2019-05-17T18:29:00.444Z,950
2019-05-17T18:39:03.895Z,950.7
2019-05-17T18:49:07.350Z,953.4
2019-05-17T18:59:10.831Z,954
2019-05-17T19:09:14.281Z,954
2019-05-17T19:19:17.789Z,953.9
2019-05-17T19:29:21.243Z,954.1
2019-05-17T19:39:24.700Z,953.6
2019-05-17T19:49:28.164Z,953.8
2019-05-17T19:59:31.594Z,953.7
2019-05-17T20:09:35.120Z,953.5
2019-05-17T20:19:38.580Z,953.9
2019-05-17T20:29:42.031Z,953.9
2019-05-17T20:39:45.498Z,953.9
2019-05-17T20:49:48.981Z,954.7
2019-05-17T20:59:52.440Z,954.9
2019-05-17T21:09:55.861Z,954.6
2019-05-17T21:19:59.324Z,954.9
2019-05-17T21:30:02.783Z,954.8
2019-05-17T21:40:06.238Z,955.2
2019-05-17T21:50:09.689Z,954.8
2019-05-17T22:00:13.162Z,954.9
2019-05-17T22:10:16.597Z,955
2019-05-17T22:20:20.072Z,955.3
2019-05-17T22:30:23.526Z,955.5
2019-05-17T22:40:26.945Z,955.8
2019-05-17T22:50:30.416Z,955.7
2019-05-17T23:00:33.872Z,955.8
2019-05-17T23:10:37.316Z,956
2019-05-17T23:20:40.774Z,956.1
2019-05-17T23:30:44.232Z,956.4
2019-05-17T23:40:47.687Z,949.1
2019-05-17T23:50:51.142Z,949
